sensor_id;sensor_type;location;lat;lon;timestamp;temperature;humidity
57566;DHT22;63999;43.882;-0.310;2023-04-24T00:02:14;13.10;77.70
57566;DHT22;63999;43.882;-0.310;2023-04-24T00:04:41;13.00;77.60
57566;DHT22;63999;43.882;-0.310;2023-04-24T00:07:12;13.00;77.60
57566;DHT22;63999;43.882;-0.310;2023-04-24T00:09:39;13.00;77.80
57566;DHT22;63999;43.882;-0.310;2023-04-24T00:12:05;13.00;77.80
57566;DHT22;63999;43.882;-0.310;2023-04-24T00:14:31;12.90;77.90
57566;DHT22;63999;43.882;-0.310;2023-04-24T00:16:57;13.00;78.10
57566;DHT22;63999;43.882;-0.310;2023-04-24T00:19:23;13.00;77.90
57566;DHT22;63999;43.882;-0.310;2023-04-24T00:21:52;12.90;78.10
57566;DHT22;63999;43.882;-0.310;2023-04-24T00:24:18;12.90;77.80
57566;DHT22;63999;43.882;-0.310;2023-04-24T00:26:44;12.90;77.80
57566;DHT22;63999;43.882;-0.310;2023-04-24T00:29:10;12.90;77.90
57566;DHT22;63999;43.882;-0.310;2023-04-24T00:31:36;12.90;78.00
57566;DHT22;63999;43.882;-0.310;2023-04-24T00:34:05;13.00;77.30
57566;DHT22;63999;43.882;-0.310;2023-04-24T00:36:32;13.00;78.00
57566;DHT22;63999;43.882;-0.310;2023-04-24T00:38:58;13.00;77.90
57566;DHT22;63999;43.882;-0.310;2023-04-24T00:41:25;13.00;77.90
57566;DHT22;63999;43.882;-0.310;2023-04-24T00:43:54;12.90;77.80
57566;DHT22;63999;43.882;-0.310;2023-04-24T00:46:21;13.00;77.40
57566;DHT22;63999;43.882;-0.310;2023-04-24T00:48:47;13.00;78.00
57566;DHT22;63999;43.882;-0.310;2023-04-24T00:51:13;12.90;77.80
57566;DHT22;63999;43.882;-0.310;2023-04-24T00:53:42;12.90;77.90
57566;DHT22;63999;43.882;-0.310;2023-04-24T00:56:11;12.90;78.00
57566;DHT22;63999;43.882;-0.310;2023-04-24T00:58:40;12.90;77.90
57566;DHT22;63999;43.882;-0.310;2023-04-24T01:01:07;12.90;77.90
57566;DHT22;63999;43.882;-0.310;2023-04-24T01:03:33;13.00;78.00
57566;DHT22;63999;43.882;-0.310;2023-04-24T01:05:59;12.90;77.70
57566;DHT22;63999;43.882;-0.310;2023-04-24T01:08:26;12.90;78.20
57566;DHT22;63999;43.882;-0.310;2023-04-24T01:10:54;12.90;78.30
57566;DHT22;63999;43.882;-0.310;2023-04-24T01:13:23;12.90;78.10
57566;DHT22;63999;43.882;-0.310;2023-04-24T01:15:50;12.80;78.30
57566;DHT22;63999;43.882;-0.310;2023-04-24T01:18:16;12.80;78.40
57566;DHT22;63999;43.882;-0.310;2023-04-24T01:20:46;12.80;78.20
57566;DHT22;63999;43.882;-0.310;2023-04-24T01:23:12;12.80;78.20
57566;DHT22;63999;43.882;-0.310;2023-04-24T01:25:38;12.80;78.10
57566;DHT22;63999;43.882;-0.310;2023-04-24T01:28:07;12.80;78.30
57566;DHT22;63999;43.882;-0.310;2023-04-24T01:30:33;12.70;78.50
57566;DHT22;63999;43.882;-0.310;2023-04-24T01:33:02;12.70;78.20
57566;DHT22;63999;43.882;-0.310;2023-04-24T01:35:31;12.70;78.20
57566;DHT22;63999;43.882;-0.310;2023-04-24T01:37:57;12.70;78.60
57566;DHT22;63999;43.882;-0.310;2023-04-24T01:40:26;12.70;77.80
57566;DHT22;63999;43.882;-0.310;2023-04-24T01:42:52;12.70;77.70
57566;DHT22;63999;43.882;-0.310;2023-04-24T01:45:21;12.70;77.80
57566;DHT22;63999;43.882;-0.310;2023-04-24T01:47:47;12.70;78.20
57566;DHT22;63999;43.882;-0.310;2023-04-24T01:50:15;12.70;78.00
57566;DHT22;63999;43.882;-0.310;2023-04-24T01:52:44;12.60;77.80
57566;DHT22;63999;43.882;-0.310;2023-04-24T01:55:10;12.60;77.70
57566;DHT22;63999;43.882;-0.310;2023-04-24T01:57:36;12.60;78.00
57566;DHT22;63999;43.882;-0.310;2023-04-24T02:00:03;12.60;77.90
57566;DHT22;63999;43.882;-0.310;2023-04-24T02:02:33;12.60;77.90
57566;DHT22;63999;43.882;-0.310;2023-04-24T02:04:59;12.60;78.00
57566;DHT22;63999;43.882;-0.310;2023-04-24T02:07:25;12.60;78.40
57566;DHT22;63999;43.882;-0.310;2023-04-24T02:09:51;12.60;78.00
57566;DHT22;63999;43.882;-0.310;2023-04-24T02:12:17;12.60;78.40
57566;DHT22;63999;43.882;-0.310;2023-04-24T02:14:46;12.70;78.60
57566;DHT22;63999;43.882;-0.310;2023-04-24T02:17:12;12.70;78.10
57566;DHT22;63999;43.882;-0.310;2023-04-24T02:19:39;12.80;78.30
57566;DHT22;63999;43.882;-0.310;2023-04-24T02:22:04;12.70;78.70
57566;DHT22;63999;43.882;-0.310;2023-04-24T02:24:30;12.70;78.70
57566;DHT22;63999;43.882;-0.310;2023-04-24T02:26:56;12.70;78.90
57566;DHT22;63999;43.882;-0.310;2023-04-24T02:29:23;12.80;78.60
57566;DHT22;63999;43.882;-0.310;2023-04-24T02:31:52;12.80;78.30
57566;DHT22;63999;43.882;-0.310;2023-04-24T02:34:18;12.80;78.30
57566;DHT22;63999;43.882;-0.310;2023-04-24T02:36:48;12.80;78.10
57566;DHT22;63999;43.882;-0.310;2023-04-24T02:39:15;12.80;78.40
57566;DHT22;63999;43.882;-0.310;2023-04-24T02:41:42;12.90;78.70
57566;DHT22;63999;43.882;-0.310;2023-04-24T02:44:08;12.90;78.30
57566;DHT22;63999;43.882;-0.310;2023-04-24T02:46:34;12.80;78.60
57566;DHT22;63999;43.882;-0.310;2023-04-24T02:49:00;12.80;78.50
57566;DHT22;63999;43.882;-0.310;2023-04-24T02:51:27;12.80;78.50
57566;DHT22;63999;43.882;-0.310;2023-04-24T02:53:53;12.80;78.60
57566;DHT22;63999;43.882;-0.310;2023-04-24T02:56:19;12.90;78.50
57566;DHT22;63999;43.882;-0.310;2023-04-24T02:58:45;12.90;78.30
57566;DHT22;63999;43.882;-0.310;2023-04-24T03:01:14;12.90;78.60
57566;DHT22;63999;43.882;-0.310;2023-04-24T03:03:46;12.90;78.90
57566;DHT22;63999;43.882;-0.310;2023-04-24T03:06:12;12.90;78.90
57566;DHT22;63999;43.882;-0.310;2023-04-24T03:08:38;12.90;78.60
57566;DHT22;63999;43.882;-0.310;2023-04-24T03:11:07;12.90;78.80
57566;DHT22;63999;43.882;-0.310;2023-04-24T03:13:33;12.90;78.80
57566;DHT22;63999;43.882;-0.310;2023-04-24T03:15:59;12.90;79.20
57566;DHT22;63999;43.882;-0.310;2023-04-24T03:18:25;12.90;78.60
57566;DHT22;63999;43.882;-0.310;2023-04-24T03:20:54;12.90;78.90
57566;DHT22;63999;43.882;-0.310;2023-04-24T03:23:23;12.90;79.10
57566;DHT22;63999;43.882;-0.310;2023-04-24T03:25:52;12.90;79.00
57566;DHT22;63999;43.882;-0.310;2023-04-24T03:28:18;12.90;79.10
57566;DHT22;63999;43.882;-0.310;2023-04-24T03:30:45;12.80;79.60
57566;DHT22;63999;43.882;-0.310;2023-04-24T03:33:11;12.80;79.80
57566;DHT22;63999;43.882;-0.310;2023-04-24T03:35:37;12.80;80.50
57566;DHT22;63999;43.882;-0.310;2023-04-24T03:38:06;12.80;79.60
57566;DHT22;63999;43.882;-0.310;2023-04-24T03:40:32;12.80;80.00
57566;DHT22;63999;43.882;-0.310;2023-04-24T03:43:02;12.90;79.40
57566;DHT22;63999;43.882;-0.310;2023-04-24T03:45:28;12.90;79.60
57566;DHT22;63999;43.882;-0.310;2023-04-24T03:47:54;12.90;79.80
57566;DHT22;63999;43.882;-0.310;2023-04-24T03:50:20;12.90;79.70
57566;DHT22;63999;43.882;-0.310;2023-04-24T03:52:46;13.00;79.60
57566;DHT22;63999;43.882;-0.310;2023-04-24T03:55:12;13.10;80.20
57566;DHT22;63999;43.882;-0.310;2023-04-24T03:57:40;13.10;79.70
57566;DHT22;63999;43.882;-0.310;2023-04-24T04:00:06;13.10;79.70
57566;DHT22;63999;43.882;-0.310;2023-04-24T04:02:35;13.20;79.50
57566;DHT22;63999;43.882;-0.310;2023-04-24T04:05:01;13.10;79.30
57566;DHT22;63999;43.882;-0.310;2023-04-24T04:07:27;13.10;79.80
57566;DHT22;63999;43.882;-0.310;2023-04-24T04:09:55;13.10;79.60
57566;DHT22;63999;43.882;-0.310;2023-04-24T04:12:21;13.10;79.10
57566;DHT22;63999;43.882;-0.310;2023-04-24T04:14:50;13.10;79.40
57566;DHT22;63999;43.882;-0.310;2023-04-24T04:17:16;13.00;79.40
57566;DHT22;63999;43.882;-0.310;2023-04-24T04:19:44;13.10;79.70
57566;DHT22;63999;43.882;-0.310;2023-04-24T04:22:10;13.10;79.30
57566;DHT22;63999;43.882;-0.310;2023-04-24T04:24:36;13.00;79.30
57566;DHT22;63999;43.882;-0.310;2023-04-24T04:27:07;13.00;79.40
57566;DHT22;63999;43.882;-0.310;2023-04-24T04:29:34;12.90;79.70
57566;DHT22;63999;43.882;-0.310;2023-04-24T04:32:00;12.90;79.90
57566;DHT22;63999;43.882;-0.310;2023-04-24T04:34:27;12.90;80.10
57566;DHT22;63999;43.882;-0.310;2023-04-24T04:36:52;12.80;79.90
57566;DHT22;63999;43.882;-0.310;2023-04-24T04:39:18;12.80;80.30
57566;DHT22;63999;43.882;-0.310;2023-04-24T04:41:45;12.80;80.20
57566;DHT22;63999;43.882;-0.310;2023-04-24T04:44:14;12.80;80.30
57566;DHT22;63999;43.882;-0.310;2023-04-24T04:46:43;12.80;80.50
57566;DHT22;63999;43.882;-0.310;2023-04-24T04:49:09;12.80;80.50
57566;DHT22;63999;43.882;-0.310;2023-04-24T04:51:38;12.80;80.60
57566;DHT22;63999;43.882;-0.310;2023-04-24T04:54:10;12.70;80.70
57566;DHT22;63999;43.882;-0.310;2023-04-24T04:56:39;12.70;80.90
57566;DHT22;63999;43.882;-0.310;2023-04-24T04:59:08;12.70;81.00
57566;DHT22;63999;43.882;-0.310;2023-04-24T05:01:34;12.60;80.90
57566;DHT22;63999;43.882;-0.310;2023-04-24T05:04:03;12.60;80.90
57566;DHT22;63999;43.882;-0.310;2023-04-24T05:06:39;12.60;81.00
57566;DHT22;63999;43.882;-0.310;2023-04-24T05:09:09;12.60;81.00
57566;DHT22;63999;43.882;-0.310;2023-04-24T05:11:37;12.50;81.00
57566;DHT22;63999;43.882;-0.310;2023-04-24T05:14:16;12.50;81.00
57566;DHT22;63999;43.882;-0.310;2023-04-24T05:16:51;12.50;81.00
57566;DHT22;63999;43.882;-0.310;2023-04-24T05:19:17;12.50;81.20
57566;DHT22;63999;43.882;-0.310;2023-04-24T05:21:43;12.50;81.20
57566;DHT22;63999;43.882;-0.310;2023-04-24T05:24:09;12.50;81.10
57566;DHT22;63999;43.882;-0.310;2023-04-24T05:26:35;12.50;81.20
57566;DHT22;63999;43.882;-0.310;2023-04-24T05:29:03;12.50;81.30
57566;DHT22;63999;43.882;-0.310;2023-04-24T05:31:29;12.50;81.40
57566;DHT22;63999;43.882;-0.310;2023-04-24T05:33:55;12.50;81.40
57566;DHT22;63999;43.882;-0.310;2023-04-24T05:36:21;12.50;81.60
57566;DHT22;63999;43.882;-0.310;2023-04-24T05:38:47;12.50;81.50
57566;DHT22;63999;43.882;-0.310;2023-04-24T05:41:34;12.50;81.40
57566;DHT22;63999;43.882;-0.310;2023-04-24T05:44:00;12.50;81.30
57566;DHT22;63999;43.882;-0.310;2023-04-24T05:46:26;12.50;81.50
57566;DHT22;63999;43.882;-0.310;2023-04-24T05:48:53;12.60;81.30
57566;DHT22;63999;43.882;-0.310;2023-04-24T05:51:19;12.80;80.80
57566;DHT22;63999;43.882;-0.310;2023-04-24T05:53:48;12.70;80.80
57566;DHT22;63999;43.882;-0.310;2023-04-24T05:56:15;12.60;81.20
57566;DHT22;63999;43.882;-0.310;2023-04-24T05:58:45;12.50;81.20
57566;DHT22;63999;43.882;-0.310;2023-04-24T06:01:14;12.50;81.40
57566;DHT22;63999;43.882;-0.310;2023-04-24T06:03:44;12.50;81.60
57566;DHT22;63999;43.882;-0.310;2023-04-24T06:06:11;12.50;81.50
57566;DHT22;63999;43.882;-0.310;2023-04-24T06:08:46;12.60;81.00
57566;DHT22;63999;43.882;-0.310;2023-04-24T06:11:12;12.60;81.20
57566;DHT22;63999;43.882;-0.310;2023-04-24T06:13:38;12.70;81.50
57566;DHT22;63999;43.882;-0.310;2023-04-24T06:16:07;12.70;81.30
57566;DHT22;63999;43.882;-0.310;2023-04-24T06:18:39;12.70;81.70
57566;DHT22;63999;43.882;-0.310;2023-04-24T06:21:05;12.70;80.80
57566;DHT22;63999;43.882;-0.310;2023-04-24T06:23:31;12.80;80.90
57566;DHT22;63999;43.882;-0.310;2023-04-24T06:25:59;12.70;80.50
57566;DHT22;63999;43.882;-0.310;2023-04-24T06:28:25;12.70;80.70
57566;DHT22;63999;43.882;-0.310;2023-04-24T06:30:51;12.70;81.10
57566;DHT22;63999;43.882;-0.310;2023-04-24T06:33:22;12.70;81.60
57566;DHT22;63999;43.882;-0.310;2023-04-24T06:35:48;12.80;81.80
57566;DHT22;63999;43.882;-0.310;2023-04-24T06:38:14;12.80;81.30
57566;DHT22;63999;43.882;-0.310;2023-04-24T06:40:41;12.80;82.10
57566;DHT22;63999;43.882;-0.310;2023-04-24T06:43:07;12.80;81.50
57566;DHT22;63999;43.882;-0.310;2023-04-24T06:45:33;12.80;82.20
57566;DHT22;63999;43.882;-0.310;2023-04-24T06:47:59;12.80;81.50
57566;DHT22;63999;43.882;-0.310;2023-04-24T06:50:29;12.80;81.50
57566;DHT22;63999;43.882;-0.310;2023-04-24T06:52:54;12.90;80.80
57566;DHT22;63999;43.882;-0.310;2023-04-24T06:55:21;12.90;80.80
57566;DHT22;63999;43.882;-0.310;2023-04-24T06:57:47;12.90;81.40
57566;DHT22;63999;43.882;-0.310;2023-04-24T07:00:14;12.90;82.00
57566;DHT22;63999;43.882;-0.310;2023-04-24T07:02:40;12.90;81.70
57566;DHT22;63999;43.882;-0.310;2023-04-24T07:05:06;12.80;81.60
57566;DHT22;63999;43.882;-0.310;2023-04-24T07:07:37;12.80;81.80
57566;DHT22;63999;43.882;-0.310;2023-04-24T07:10:06;12.90;81.90
57566;DHT22;63999;43.882;-0.310;2023-04-24T07:12:32;12.90;81.10
57566;DHT22;63999;43.882;-0.310;2023-04-24T07:15:01;12.90;81.40
57566;DHT22;63999;43.882;-0.310;2023-04-24T07:17:27;13.00;81.60
57566;DHT22;63999;43.882;-0.310;2023-04-24T07:19:56;13.00;81.20
57566;DHT22;63999;43.882;-0.310;2023-04-24T07:22:22;13.00;82.60
57566;DHT22;63999;43.882;-0.310;2023-04-24T07:25:35;13.00;80.90
57566;DHT22;63999;43.882;-0.310;2023-04-24T07:28:01;13.00;80.60
57566;DHT22;63999;43.882;-0.310;2023-04-24T07:30:27;13.00;80.90
57566;DHT22;63999;43.882;-0.310;2023-04-24T07:32:55;13.00;81.70
57566;DHT22;63999;43.882;-0.310;2023-04-24T07:35:30;13.00;81.90
57566;DHT22;63999;43.882;-0.310;2023-04-24T07:37:59;13.00;81.50
57566;DHT22;63999;43.882;-0.310;2023-04-24T07:40:25;13.00;82.20
57566;DHT22;63999;43.882;-0.310;2023-04-24T07:42:52;13.00;80.80
57566;DHT22;63999;43.882;-0.310;2023-04-24T07:45:18;13.00;81.50
57566;DHT22;63999;43.882;-0.310;2023-04-24T07:47:44;13.10;81.20
57566;DHT22;63999;43.882;-0.310;2023-04-24T07:50:13;13.10;81.40
57566;DHT22;63999;43.882;-0.310;2023-04-24T07:53:24;13.10;81.00
57566;DHT22;63999;43.882;-0.310;2023-04-24T07:55:50;13.10;80.70
57566;DHT22;63999;43.882;-0.310;2023-04-24T07:58:19;13.10;80.70
57566;DHT22;63999;43.882;-0.310;2023-04-24T08:00:46;13.00;80.60
57566;DHT22;63999;43.882;-0.310;2023-04-24T08:03:15;13.00;81.00
57566;DHT22;63999;43.882;-0.310;2023-04-24T08:06:14;13.10;80.80
57566;DHT22;63999;43.882;-0.310;2023-04-24T08:08:57;13.00;80.40
57566;DHT22;63999;43.882;-0.310;2023-04-24T08:11:33;13.00;81.00
57566;DHT22;63999;43.882;-0.310;2023-04-24T08:14:17;13.00;81.20
57566;DHT22;63999;43.882;-0.310;2023-04-24T08:17:17;13.10;81.20
57566;DHT22;63999;43.882;-0.310;2023-04-24T08:20:09;13.10;80.60
57566;DHT22;63999;43.882;-0.310;2023-04-24T08:23:32;13.10;80.30
57566;DHT22;63999;43.882;-0.310;2023-04-24T08:26:26;13.10;81.30
57566;DHT22;63999;43.882;-0.310;2023-04-24T08:28:56;13.10;80.90
57566;DHT22;63999;43.882;-0.310;2023-04-24T08:31:22;13.10;80.60
57566;DHT22;63999;43.882;-0.310;2023-04-24T08:33:50;13.10;80.70
57566;DHT22;63999;43.882;-0.310;2023-04-24T08:36:16;13.10;80.80
57566;DHT22;63999;43.882;-0.310;2023-04-24T08:38:45;13.10;81.00
57566;DHT22;63999;43.882;-0.310;2023-04-24T08:41:14;13.30;80.80
57566;DHT22;63999;43.882;-0.310;2023-04-24T08:43:41;13.30;80.70
57566;DHT22;63999;43.882;-0.310;2023-04-24T08:46:08;13.30;80.80
57566;DHT22;63999;43.882;-0.310;2023-04-24T08:48:41;13.20;80.70
57566;DHT22;63999;43.882;-0.310;2023-04-24T08:51:10;13.30;80.60
57566;DHT22;63999;43.882;-0.310;2023-04-24T08:53:36;13.30;80.50
57566;DHT22;63999;43.882;-0.310;2023-04-24T08:56:03;13.30;80.60
57566;DHT22;63999;43.882;-0.310;2023-04-24T08:58:30;13.30;81.00
57566;DHT22;63999;43.882;-0.310;2023-04-24T09:00:57;13.30;81.10
57566;DHT22;63999;43.882;-0.310;2023-04-24T09:03:23;13.30;80.50
57566;DHT22;63999;43.882;-0.310;2023-04-24T09:05:54;13.30;80.70
57566;DHT22;63999;43.882;-0.310;2023-04-24T09:08:23;13.30;81.30
57566;DHT22;63999;43.882;-0.310;2023-04-24T09:10:53;13.40;81.60
57566;DHT22;63999;43.882;-0.310;2023-04-24T09:13:20;13.40;80.50
57566;DHT22;63999;43.882;-0.310;2023-04-24T09:15:46;13.30;82.50
57566;DHT22;63999;43.882;-0.310;2023-04-24T09:18:12;13.40;80.80
57566;DHT22;63999;43.882;-0.310;2023-04-24T09:21:13;13.40;80.70
57566;DHT22;63999;43.882;-0.310;2023-04-24T09:23:41;13.40;81.00
57566;DHT22;63999;43.882;-0.310;2023-04-24T09:26:09;13.50;81.60
57566;DHT22;63999;43.882;-0.310;2023-04-24T09:28:37;13.50;83.80
57566;DHT22;63999;43.882;-0.310;2023-04-24T09:31:08;13.70;82.90
57566;DHT22;63999;43.882;-0.310;2023-04-24T09:33:34;13.80;83.80
57566;DHT22;63999;43.882;-0.310;2023-04-24T09:36:04;13.80;84.20
57566;DHT22;63999;43.882;-0.310;2023-04-24T09:38:39;13.90;82.50
57566;DHT22;63999;43.882;-0.310;2023-04-24T09:41:07;13.70;81.20
57566;DHT22;63999;43.882;-0.310;2023-04-24T09:43:37;13.60;80.80
57566;DHT22;63999;43.882;-0.310;2023-04-24T09:46:07;13.60;82.00
57566;DHT22;63999;43.882;-0.310;2023-04-24T09:48:36;13.70;82.20
57566;DHT22;63999;43.882;-0.310;2023-04-24T09:51:04;13.70;81.70
57566;DHT22;63999;43.882;-0.310;2023-04-24T09:53:30;13.60;81.00
57566;DHT22;63999;43.882;-0.310;2023-04-24T09:56:12;13.70;81.50
57566;DHT22;63999;43.882;-0.310;2023-04-24T09:58:46;13.70;81.00
57566;DHT22;63999;43.882;-0.310;2023-04-24T10:01:12;13.70;83.00
57566;DHT22;63999;43.882;-0.310;2023-04-24T10:03:42;13.80;81.90
57566;DHT22;63999;43.882;-0.310;2023-04-24T10:06:12;13.90;81.50
57566;DHT22;63999;43.882;-0.310;2023-04-24T10:08:38;13.90;80.90
57566;DHT22;63999;43.882;-0.310;2023-04-24T10:11:04;13.80;80.70
57566;DHT22;63999;43.882;-0.310;2023-04-24T10:13:32;13.70;80.90
57566;DHT22;63999;43.882;-0.310;2023-04-24T10:16:00;13.70;80.90
57566;DHT22;63999;43.882;-0.310;2023-04-24T10:18:27;13.70;80.80
57566;DHT22;63999;43.882;-0.310;2023-04-24T10:20:53;13.70;81.70
57566;DHT22;63999;43.882;-0.310;2023-04-24T10:23:20;13.60;81.50
57566;DHT22;63999;43.882;-0.310;2023-04-24T10:25:48;13.70;81.80
57566;DHT22;63999;43.882;-0.310;2023-04-24T10:28:15;13.90;82.40
57566;DHT22;63999;43.882;-0.310;2023-04-24T10:30:43;13.90;80.70
57566;DHT22;63999;43.882;-0.310;2023-04-24T10:33:09;13.80;80.50
57566;DHT22;63999;43.882;-0.310;2023-04-24T10:35:40;13.70;80.70
57566;DHT22;63999;43.882;-0.310;2023-04-24T10:38:14;13.70;81.40
57566;DHT22;63999;43.882;-0.310;2023-04-24T10:40:45;13.70;81.00
57566;DHT22;63999;43.882;-0.310;2023-04-24T10:43:16;13.70;80.80
57566;DHT22;63999;43.882;-0.310;2023-04-24T10:46:00;13.70;80.60
57566;DHT22;63999;43.882;-0.310;2023-04-24T10:48:27;13.70;80.70
57566;DHT22;63999;43.882;-0.310;2023-04-24T10:50:56;13.70;80.70
57566;DHT22;63999;43.882;-0.310;2023-04-24T10:53:24;13.70;80.50
57566;DHT22;63999;43.882;-0.310;2023-04-24T10:56:03;13.80;80.70
57566;DHT22;63999;43.882;-0.310;2023-04-24T10:58:43;13.80;80.60
57566;DHT22;63999;43.882;-0.310;2023-04-24T11:01:28;13.90;80.80
57566;DHT22;63999;43.882;-0.310;2023-04-24T11:03:57;13.90;81.10
57566;DHT22;63999;43.882;-0.310;2023-04-24T11:06:30;13.90;80.70
57566;DHT22;63999;43.882;-0.310;2023-04-24T11:09:15;13.90;80.80
57566;DHT22;63999;43.882;-0.310;2023-04-24T11:11:45;13.90;81.20
57566;DHT22;63999;43.882;-0.310;2023-04-24T11:14:17;14.00;80.90
57566;DHT22;63999;43.882;-0.310;2023-04-24T11:16:53;14.00;80.50
57566;DHT22;63999;43.882;-0.310;2023-04-24T11:19:24;14.00;81.00
57566;DHT22;63999;43.882;-0.310;2023-04-24T11:22:06;14.10;80.40
57566;DHT22;63999;43.882;-0.310;2023-04-24T11:27:18;14.10;82.90
57566;DHT22;63999;43.882;-0.310;2023-04-24T11:29:58;14.40;81.90
57566;DHT22;63999;43.882;-0.310;2023-04-24T11:37:49;14.20;80.50
57566;DHT22;63999;43.882;-0.310;2023-04-24T11:40:20;14.30;80.40
57566;DHT22;63999;43.882;-0.310;2023-04-24T11:42:47;14.20;80.80
57566;DHT22;63999;43.882;-0.310;2023-04-24T11:45:25;14.20;81.50
57566;DHT22;63999;43.882;-0.310;2023-04-24T11:47:51;14.30;80.70
57566;DHT22;63999;43.882;-0.310;2023-04-24T11:50:22;14.30;81.70
57566;DHT22;63999;43.882;-0.310;2023-04-24T11:52:49;14.30;80.50
57566;DHT22;63999;43.882;-0.310;2023-04-24T11:58:02;14.30;80.60
57566;DHT22;63999;43.882;-0.310;2023-04-24T12:00:30;14.30;80.60
57566;DHT22;63999;43.882;-0.310;2023-04-24T12:05:31;14.50;80.80
57566;DHT22;63999;43.882;-0.310;2023-04-24T12:08:03;14.70;80.70
57566;DHT22;63999;43.882;-0.310;2023-04-24T12:10:31;14.60;80.50
57566;DHT22;63999;43.882;-0.310;2023-04-24T12:12:58;14.60;80.50
57566;DHT22;63999;43.882;-0.310;2023-04-24T12:15:26;14.50;80.20
57566;DHT22;63999;43.882;-0.310;2023-04-24T12:17:53;14.50;80.60
57566;DHT22;63999;43.882;-0.310;2023-04-24T12:20:33;14.50;80.50
57566;DHT22;63999;43.882;-0.310;2023-04-24T12:23:00;14.50;80.30
57566;DHT22;63999;43.882;-0.310;2023-04-24T12:25:28;14.50;80.80
57566;DHT22;63999;43.882;-0.310;2023-04-24T12:30:32;14.60;81.20
57566;DHT22;63999;43.882;-0.310;2023-04-24T12:32:59;14.70;81.10
57566;DHT22;63999;43.882;-0.310;2023-04-24T12:35:31;14.70;80.70
57566;DHT22;63999;43.882;-0.310;2023-04-24T12:38:13;14.70;80.50
57566;DHT22;63999;43.882;-0.310;2023-04-24T12:40:46;14.60;80.00
57566;DHT22;63999;43.882;-0.310;2023-04-24T12:43:17;14.60;80.20
57566;DHT22;63999;43.882;-0.310;2023-04-24T12:45:44;14.70;81.10
57566;DHT22;63999;43.882;-0.310;2023-04-24T12:48:16;14.70;80.10
57566;DHT22;63999;43.882;-0.310;2023-04-24T12:50:43;14.60;80.00
57566;DHT22;63999;43.882;-0.310;2023-04-24T12:53:09;14.60;80.30
57566;DHT22;63999;43.882;-0.310;2023-04-24T12:55:36;14.60;80.10
57566;DHT22;63999;43.882;-0.310;2023-04-24T12:58:05;14.50;80.10
57566;DHT22;63999;43.882;-0.310;2023-04-24T13:00:31;14.50;80.20
57566;DHT22;63999;43.882;-0.310;2023-04-24T13:02:57;14.60;80.00
57566;DHT22;63999;43.882;-0.310;2023-04-24T13:05:23;14.50;80.10
57566;DHT22;63999;43.882;-0.310;2023-04-24T13:07:50;14.50;80.10
57566;DHT22;63999;43.882;-0.310;2023-04-24T13:10:16;14.60;80.00
57566;DHT22;63999;43.882;-0.310;2023-04-24T13:12:45;14.50;79.90
57566;DHT22;63999;43.882;-0.310;2023-04-24T13:15:12;14.50;80.00
57566;DHT22;63999;43.882;-0.310;2023-04-24T13:17:44;14.60;80.00
57566;DHT22;63999;43.882;-0.310;2023-04-24T13:20:10;14.70;80.10
57566;DHT22;63999;43.882;-0.310;2023-04-24T13:22:39;14.70;80.10
57566;DHT22;63999;43.882;-0.310;2023-04-24T13:25:05;14.70;79.60
57566;DHT22;63999;43.882;-0.310;2023-04-24T13:27:32;14.60;80.30
57566;DHT22;63999;43.882;-0.310;2023-04-24T13:29:58;14.60;79.70
57566;DHT22;63999;43.882;-0.310;2023-04-24T13:32:28;14.60;80.80
57566;DHT22;63999;43.882;-0.310;2023-04-24T13:34:54;14.70;79.70
57566;DHT22;63999;43.882;-0.310;2023-04-24T13:37:20;14.70;80.20
57566;DHT22;63999;43.882;-0.310;2023-04-24T13:39:49;14.70;79.90
57566;DHT22;63999;43.882;-0.310;2023-04-24T13:42:17;14.70;79.50
57566;DHT22;63999;43.882;-0.310;2023-04-24T13:44:43;14.70;80.50
57566;DHT22;63999;43.882;-0.310;2023-04-24T13:47:13;14.70;79.70
57566;DHT22;63999;43.882;-0.310;2023-04-24T13:49:42;14.70;79.70
57566;DHT22;63999;43.882;-0.310;2023-04-24T13:52:09;14.70;80.30
57566;DHT22;63999;43.882;-0.310;2023-04-24T13:54:37;14.80;80.00
57566;DHT22;63999;43.882;-0.310;2023-04-24T13:57:06;14.80;79.40
57566;DHT22;63999;43.882;-0.310;2023-04-24T13:59:32;14.70;79.60
57566;DHT22;63999;43.882;-0.310;2023-04-24T14:01:58;14.70;79.70
57566;DHT22;63999;43.882;-0.310;2023-04-24T14:04:25;14.70;80.50
57566;DHT22;63999;43.882;-0.310;2023-04-24T14:06:50;14.80;79.60
57566;DHT22;63999;43.882;-0.310;2023-04-24T14:09:19;14.80;79.50
57566;DHT22;63999;43.882;-0.310;2023-04-24T14:11:48;14.80;80.90
57566;DHT22;63999;43.882;-0.310;2023-04-24T14:14:17;14.80;79.50
57566;DHT22;63999;43.882;-0.310;2023-04-24T14:16:43;14.80;80.50
57566;DHT22;63999;43.882;-0.310;2023-04-24T14:19:12;14.80;79.30
57566;DHT22;63999;43.882;-0.310;2023-04-24T14:21:41;14.80;79.50
57566;DHT22;63999;43.882;-0.310;2023-04-24T14:24:08;14.80;79.60
57566;DHT22;63999;43.882;-0.310;2023-04-24T14:26:34;14.80;79.50
57566;DHT22;63999;43.882;-0.310;2023-04-24T14:29:01;14.80;79.50
57566;DHT22;63999;43.882;-0.310;2023-04-24T14:31:30;14.80;79.50
57566;DHT22;63999;43.882;-0.310;2023-04-24T14:33:56;14.80;79.50
57566;DHT22;63999;43.882;-0.310;2023-04-24T14:36:23;14.80;79.50
57566;DHT22;63999;43.882;-0.310;2023-04-24T14:38:52;14.80;79.70
57566;DHT22;63999;43.882;-0.310;2023-04-24T14:41:18;14.90;79.40
57566;DHT22;63999;43.882;-0.310;2023-04-24T14:43:44;14.80;79.50
57566;DHT22;63999;43.882;-0.310;2023-04-24T14:46:15;14.80;79.60
57566;DHT22;63999;43.882;-0.310;2023-04-24T14:48:44;15.00;80.20
57566;DHT22;63999;43.882;-0.310;2023-04-24T14:51:17;15.00;79.10
57566;DHT22;63999;43.882;-0.310;2023-04-24T14:53:47;14.90;80.50
57566;DHT22;63999;43.882;-0.310;2023-04-24T14:56:26;15.00;80.30
57566;DHT22;63999;43.882;-0.310;2023-04-24T14:58:59;15.00;79.60
57566;DHT22;63999;43.882;-0.310;2023-04-24T15:01:50;15.00;79.00
57566;DHT22;63999;43.882;-0.310;2023-04-24T15:04:43;15.00;79.10
57566;DHT22;63999;43.882;-0.310;2023-04-24T15:07:43;14.90;79.30
57566;DHT22;63999;43.882;-0.310;2023-04-24T15:10:37;14.90;79.50
57566;DHT22;63999;43.882;-0.310;2023-04-24T15:13:27;14.90;79.40
57566;DHT22;63999;43.882;-0.310;2023-04-24T15:16:24;14.90;79.40
57566;DHT22;63999;43.882;-0.310;2023-04-24T15:23:03;14.90;79.30
57566;DHT22;63999;43.882;-0.310;2023-04-24T15:25:45;14.90;79.40
57566;DHT22;63999;43.882;-0.310;2023-04-24T15:28:47;14.90;79.50
57566;DHT22;63999;43.882;-0.310;2023-04-24T15:31:53;15.00;79.30
57566;DHT22;63999;43.882;-0.310;2023-04-24T15:34:22;15.00;79.20
57566;DHT22;63999;43.882;-0.310;2023-04-24T15:36:48;14.90;79.20
57566;DHT22;63999;43.882;-0.310;2023-04-24T15:39:15;14.90;79.50
57566;DHT22;63999;43.882;-0.310;2023-04-24T15:41:41;14.90;79.30
57566;DHT22;63999;43.882;-0.310;2023-04-24T15:44:07;14.90;79.30
57566;DHT22;63999;43.882;-0.310;2023-04-24T15:46:34;15.00;79.30
57566;DHT22;63999;43.882;-0.310;2023-04-24T15:49:01;14.90;79.30
57566;DHT22;63999;43.882;-0.310;2023-04-24T15:51:27;15.00;79.20